sensor_id;sensor_type;location;lat;lon;timestamp;P1;durP1;ratioP1;P2;durP2;ratioP2
44169;SDS011;29836;52.286;9.576;2023-06-22T00:00:52;7.57;;;5.93;;
44169;SDS011;29836;52.286;9.576;2023-06-22T00:03:18;11.85;;;6.55;;
44169;SDS011;29836;52.286;9.576;2023-06-22T00:05:45;15.00;;;7.28;;
44169;SDS011;29836;52.286;9.576;2023-06-22T00:08:11;9.32;;;6.50;;
44169;SDS011;29836;52.286;9.576;2023-06-22T00:10:37;9.60;;;7.03;;
44169;SDS011;29836;52.286;9.576;2023-06-22T00:13:03;15.15;;;7.50;;
44169;SDS011;29836;52.286;9.576;2023-06-22T00:15:30;9.85;;;7.47;;
44169;SDS011;29836;52.286;9.576;2023-06-22T00:17:55;10.93;;;6.97;;
44169;SDS011;29836;52.286;9.576;2023-06-22T00:20:22;9.68;;;7.07;;
44169;SDS011;29836;52.286;9.576;2023-06-22T00:22:52;8.35;;;6.93;;
44169;SDS011;29836;52.286;9.576;2023-06-22T00:25:21;9.98;;;7.57;;
44169;SDS011;29836;52.286;9.576;2023-06-22T00:27:47;9.70;;;7.30;;
44169;SDS011;29836;52.286;9.576;2023-06-22T00:30:13;9.73;;;7.57;;
44169;SDS011;29836;52.286;9.576;2023-06-22T00:32:40;11.07;;;7.65;;
44169;SDS011;29836;52.286;9.576;2023-06-22T00:35:05;9.45;;;7.93;;
44169;SDS011;29836;52.286;9.576;2023-06-22T00:37:32;10.50;;;8.43;;
44169;SDS011;29836;52.286;9.576;2023-06-22T00:39:57;12.30;;;8.63;;
44169;SDS011;29836;52.286;9.576;2023-06-22T00:42:23;10.88;;;8.80;;
44169;SDS011;29836;52.286;9.576;2023-06-22T00:44:48;11.00;;;9.05;;
44169;SDS011;29836;52.286;9.576;2023-06-22T00:47:14;12.60;;;9.85;;
44169;SDS011;29836;52.286;9.576;2023-06-22T00:49:42;10.15;;;8.15;;
44169;SDS011;29836;52.286;9.576;2023-06-22T00:52:08;10.57;;;8.20;;
44169;SDS011;29836;52.286;9.576;2023-06-22T00:54:39;15.43;;;8.65;;
44169;SDS011;29836;52.286;9.576;2023-06-22T00:57:08;11.63;;;8.27;;
44169;SDS011;29836;52.286;9.576;2023-06-22T00:59:36;9.93;;;7.68;;
44169;SDS011;29836;52.286;9.576;2023-06-22T01:02:02;12.38;;;7.80;;
44169;SDS011;29836;52.286;9.576;2023-06-22T01:04:33;13.75;;;8.85;;
44169;SDS011;29836;52.286;9.576;2023-06-22T01:07:20;9.77;;;7.13;;
44169;SDS011;29836;52.286;9.576;2023-06-22T01:12:32;13.68;;;8.20;;
44169;SDS011;29836;52.286;9.576;2023-06-22T01:16:02;14.25;;;9.00;;
44169;SDS011;29836;52.286;9.576;2023-06-22T01:18:04;11.98;;;7.63;;
44169;SDS011;29836;52.286;9.576;2023-06-22T01:20:34;10.88;;;8.38;;
44169;SDS011;29836;52.286;9.576;2023-06-22T01:23:20;11.38;;;7.80;;
44169;SDS011;29836;52.286;9.576;2023-06-22T01:28:47;14.38;;;9.93;;
44169;SDS011;29836;52.286;9.576;2023-06-22T01:31:23;15.13;;;10.88;;
44169;SDS011;29836;52.286;9.576;2023-06-22T01:33:51;15.52;;;11.63;;
44169;SDS011;29836;52.286;9.576;2023-06-22T01:36:19;15.82;;;11.48;;
44169;SDS011;29836;52.286;9.576;2023-06-22T01:38:47;13.52;;;9.93;;
44169;SDS011;29836;52.286;9.576;2023-06-22T01:41:14;12.90;;;9.85;;
44169;SDS011;29836;52.286;9.576;2023-06-22T01:43:41;13.90;;;9.77;;
44169;SDS011;29836;52.286;9.576;2023-06-22T01:46:08;11.63;;;9.82;;
44169;SDS011;29836;52.286;9.576;2023-06-22T01:48:35;12.75;;;9.35;;
44169;SDS011;29836;52.286;9.576;2023-06-22T01:51:00;12.57;;;9.38;;
44169;SDS011;29836;52.286;9.576;2023-06-22T01:53:27;15.38;;;9.90;;
44169;SDS011;29836;52.286;9.576;2023-06-22T01:55:53;15.32;;;10.10;;
44169;SDS011;29836;52.286;9.576;2023-06-22T01:58:18;13.68;;;9.40;;
44169;SDS011;29836;52.286;9.576;2023-06-22T02:00:48;12.57;;;9.02;;
44169;SDS011;29836;52.286;9.576;2023-06-22T02:03:19;14.80;;;9.57;;
44169;SDS011;29836;52.286;9.576;2023-06-22T02:05:54;13.13;;;10.55;;
44169;SDS011;29836;52.286;9.576;2023-06-22T02:08:28;12.40;;;10.25;;
44169;SDS011;29836;52.286;9.576;2023-06-22T02:10:56;14.93;;;10.15;;
44169;SDS011;29836;52.286;9.576;2023-06-22T02:13:24;12.35;;;10.10;;
44169;SDS011;29836;52.286;9.576;2023-06-22T02:15:50;14.13;;;10.75;;
44169;SDS011;29836;52.286;9.576;2023-06-22T02:18:16;14.35;;;11.68;;
44169;SDS011;29836;52.286;9.576;2023-06-22T02:20:42;15.07;;;11.00;;
44169;SDS011;29836;52.286;9.576;2023-06-22T02:23:07;14.40;;;10.02;;
44169;SDS011;29836;52.286;9.576;2023-06-22T02:25:33;13.35;;;10.50;;
44169;SDS011;29836;52.286;9.576;2023-06-22T02:28:00;11.82;;;9.38;;
44169;SDS011;29836;52.286;9.576;2023-06-22T02:30:26;20.17;;;12.82;;
44169;SDS011;29836;52.286;9.576;2023-06-22T02:32:51;16.75;;;12.38;;
44169;SDS011;29836;52.286;9.576;2023-06-22T02:35:23;17.27;;;12.45;;
44169;SDS011;29836;52.286;9.576;2023-06-22T02:37:56;15.82;;;11.10;;
44169;SDS011;29836;52.286;9.576;2023-06-22T02:40:25;14.18;;;11.38;;
44169;SDS011;29836;52.286;9.576;2023-06-22T02:42:51;16.88;;;11.98;;
44169;SDS011;29836;52.286;9.576;2023-06-22T02:45:17;14.23;;;10.57;;
44169;SDS011;29836;52.286;9.576;2023-06-22T02:47:42;17.33;;;12.77;;
44169;SDS011;29836;52.286;9.576;2023-06-22T02:50:08;14.00;;;11.50;;
44169;SDS011;29836;52.286;9.576;2023-06-22T02:52:34;14.23;;;11.77;;
44169;SDS011;29836;52.286;9.576;2023-06-22T02:54:59;15.02;;;11.70;;
44169;SDS011;29836;52.286;9.576;2023-06-22T02:57:25;15.80;;;11.25;;
44169;SDS011;29836;52.286;9.576;2023-06-22T02:59:50;17.15;;;13.00;;
44169;SDS011;29836;52.286;9.576;2023-06-22T03:02:16;14.25;;;11.65;;
44169;SDS011;29836;52.286;9.576;2023-06-22T03:04:42;15.13;;;11.93;;
44169;SDS011;29836;52.286;9.576;2023-06-22T03:07:08;13.90;;;11.07;;
44169;SDS011;29836;52.286;9.576;2023-06-22T03:09:33;13.15;;;10.55;;
44169;SDS011;29836;52.286;9.576;2023-06-22T03:11:59;15.18;;;12.00;;
44169;SDS011;29836;52.286;9.576;2023-06-22T03:14:25;15.52;;;12.50;;
44169;SDS011;29836;52.286;9.576;2023-06-22T03:16:51;17.13;;;13.02;;
44169;SDS011;29836;52.286;9.576;2023-06-22T03:19:16;14.90;;;10.43;;
44169;SDS011;29836;52.286;9.576;2023-06-22T03:21:42;17.13;;;12.07;;
44169;SDS011;29836;52.286;9.576;2023-06-22T03:24:07;15.95;;;11.82;;
44169;SDS011;29836;52.286;9.576;2023-06-22T03:26:33;12.65;;;10.27;;
44169;SDS011;29836;52.286;9.576;2023-06-22T03:28:59;15.27;;;11.98;;
44169;SDS011;29836;52.286;9.576;2023-06-22T03:31:25;13.73;;;11.32;;
44169;SDS011;29836;52.286;9.576;2023-06-22T03:33:50;15.90;;;11.90;;
44169;SDS011;29836;52.286;9.576;2023-06-22T03:36:16;14.88;;;11.40;;
44169;SDS011;29836;52.286;9.576;2023-06-22T03:38:46;14.05;;;11.45;;
44169;SDS011;29836;52.286;9.576;2023-06-22T03:41:12;15.18;;;12.07;;
44169;SDS011;29836;52.286;9.576;2023-06-22T03:43:38;17.00;;;12.73;;
44169;SDS011;29836;52.286;9.576;2023-06-22T03:46:04;16.15;;;12.93;;
44169;SDS011;29836;52.286;9.576;2023-06-22T03:48:30;15.48;;;13.38;;
44169;SDS011;29836;52.286;9.576;2023-06-22T03:50:56;15.45;;;12.63;;
44169;SDS011;29836;52.286;9.576;2023-06-22T03:53:24;14.98;;;12.52;;
44169;SDS011;29836;52.286;9.576;2023-06-22T03:55:50;14.93;;;12.63;;
44169;SDS011;29836;52.286;9.576;2023-06-22T03:58:17;17.20;;;13.30;;
44169;SDS011;29836;52.286;9.576;2023-06-22T04:00:50;16.88;;;14.00;;
44169;SDS011;29836;52.286;9.576;2023-06-22T04:03:17;18.15;;;13.93;;
44169;SDS011;29836;52.286;9.576;2023-06-22T04:05:43;17.17;;;12.57;;
44169;SDS011;29836;52.286;9.576;2023-06-22T04:08:09;16.10;;;13.60;;
44169;SDS011;29836;52.286;9.576;2023-06-22T04:10:35;17.45;;;12.90;;
44169;SDS011;29836;52.286;9.576;2023-06-22T04:13:00;18.08;;;12.63;;
44169;SDS011;29836;52.286;9.576;2023-06-22T04:15:26;15.75;;;12.48;;
44169;SDS011;29836;52.286;9.576;2023-06-22T04:17:51;14.02;;;12.25;;
44169;SDS011;29836;52.286;9.576;2023-06-22T04:20:19;16.58;;;11.27;;
44169;SDS011;29836;52.286;9.576;2023-06-22T04:22:44;18.25;;;10.25;;
44169;SDS011;29836;52.286;9.576;2023-06-22T04:25:10;14.07;;;9.70;;
44169;SDS011;29836;52.286;9.576;2023-06-22T04:27:36;15.60;;;10.65;;
44169;SDS011;29836;52.286;9.576;2023-06-22T04:30:05;17.48;;;12.30;;
44169;SDS011;29836;52.286;9.576;2023-06-22T04:32:32;16.98;;;10.88;;
44169;SDS011;29836;52.286;9.576;2023-06-22T04:34:58;16.65;;;13.18;;
44169;SDS011;29836;52.286;9.576;2023-06-22T04:37:25;16.15;;;13.70;;
44169;SDS011;29836;52.286;9.576;2023-06-22T04:39:51;16.25;;;12.65;;
44169;SDS011;29836;52.286;9.576;2023-06-22T04:42:17;18.33;;;14.13;;
44169;SDS011;29836;52.286;9.576;2023-06-22T04:44:42;21.92;;;13.93;;
44169;SDS011;29836;52.286;9.576;2023-06-22T04:47:08;16.55;;;13.80;;
44169;SDS011;29836;52.286;9.576;2023-06-22T04:49:34;19.45;;;15.15;;
44169;SDS011;29836;52.286;9.576;2023-06-22T04:52:06;18.52;;;14.50;;
44169;SDS011;29836;52.286;9.576;2023-06-22T04:54:33;16.60;;;13.80;;
44169;SDS011;29836;52.286;9.576;2023-06-22T04:57:00;17.75;;;14.45;;
44169;SDS011;29836;52.286;9.576;2023-06-22T04:59:27;15.73;;;12.00;;
44169;SDS011;29836;52.286;9.576;2023-06-22T05:01:57;18.55;;;13.52;;
44169;SDS011;29836;52.286;9.576;2023-06-22T05:04:26;15.35;;;12.48;;
44169;SDS011;29836;52.286;9.576;2023-06-22T05:06:53;14.88;;;12.68;;
44169;SDS011;29836;52.286;9.576;2023-06-22T05:09:19;15.48;;;11.38;;
44169;SDS011;29836;52.286;9.576;2023-06-22T05:11:45;17.45;;;13.30;;
44169;SDS011;29836;52.286;9.576;2023-06-22T05:14:12;14.02;;;11.25;;
44169;SDS011;29836;52.286;9.576;2023-06-22T05:16:38;20.95;;;14.93;;
44169;SDS011;29836;52.286;9.576;2023-06-22T05:19:04;17.98;;;14.50;;
44169;SDS011;29836;52.286;9.576;2023-06-22T05:21:30;15.63;;;13.07;;
44169;SDS011;29836;52.286;9.576;2023-06-22T05:23:56;19.48;;;13.90;;
44169;SDS011;29836;52.286;9.576;2023-06-22T05:26:27;19.95;;;13.65;;
44169;SDS011;29836;52.286;9.576;2023-06-22T05:28:53;17.38;;;13.43;;
44169;SDS011;29836;52.286;9.576;2023-06-22T05:31:19;16.38;;;13.77;;
44169;SDS011;29836;52.286;9.576;2023-06-22T05:33:45;18.75;;;14.45;;
44169;SDS011;29836;52.286;9.576;2023-06-22T05:36:11;18.25;;;14.52;;
44169;SDS011;29836;52.286;9.576;2023-06-22T05:38:37;16.52;;;13.20;;
44169;SDS011;29836;52.286;9.576;2023-06-22T05:41:03;13.93;;;11.95;;
44169;SDS011;29836;52.286;9.576;2023-06-22T05:43:29;16.85;;;14.10;;
44169;SDS011;29836;52.286;9.576;2023-06-22T05:45:55;17.50;;;14.60;;
44169;SDS011;29836;52.286;9.576;2023-06-22T05:48:20;19.02;;;14.55;;
44169;SDS011;29836;52.286;9.576;2023-06-22T05:50:46;17.65;;;14.95;;
44169;SDS011;29836;52.286;9.576;2023-06-22T05:53:12;19.98;;;14.60;;
44169;SDS011;29836;52.286;9.576;2023-06-22T05:55:37;24.75;;;15.57;;
44169;SDS011;29836;52.286;9.576;2023-06-22T05:58:03;19.45;;;15.35;;
44169;SDS011;29836;52.286;9.576;2023-06-22T06:00:28;20.77;;;15.82;;
44169;SDS011;29836;52.286;9.576;2023-06-22T06:02:54;18.77;;;15.57;;
44169;SDS011;29836;52.286;9.576;2023-06-22T06:05:20;21.33;;;16.33;;
44169;SDS011;29836;52.286;9.576;2023-06-22T06:07:45;20.48;;;15.43;;
44169;SDS011;29836;52.286;9.576;2023-06-22T06:10:11;21.05;;;16.73;;
44169;SDS011;29836;52.286;9.576;2023-06-22T06:12:37;18.90;;;15.15;;
44169;SDS011;29836;52.286;9.576;2023-06-22T06:15:03;19.10;;;15.48;;
44169;SDS011;29836;52.286;9.576;2023-06-22T06:17:29;18.40;;;15.45;;
44169;SDS011;29836;52.286;9.576;2023-06-22T06:19:54;22.33;;;14.85;;
44169;SDS011;29836;52.286;9.576;2023-06-22T06:22:20;17.92;;;14.60;;
44169;SDS011;29836;52.286;9.576;2023-06-22T06:24:46;19.25;;;13.90;;
44169;SDS011;29836;52.286;9.576;2023-06-22T06:27:13;21.80;;;14.45;;
44169;SDS011;29836;52.286;9.576;2023-06-22T06:29:38;18.33;;;14.32;;
44169;SDS011;29836;52.286;9.576;2023-06-22T06:32:04;17.15;;;13.20;;
44169;SDS011;29836;52.286;9.576;2023-06-22T06:34:30;18.15;;;13.82;;
44169;SDS011;29836;52.286;9.576;2023-06-22T06:36:56;14.80;;;12.13;;
44169;SDS011;29836;52.286;9.576;2023-06-22T06:39:21;16.75;;;13.45;;
44169;SDS011;29836;52.286;9.576;2023-06-22T06:41:47;20.15;;;13.90;;
44169;SDS011;29836;52.286;9.576;2023-06-22T06:44:12;18.77;;;12.93;;
44169;SDS011;29836;52.286;9.576;2023-06-22T06:46:38;14.40;;;12.18;;
44169;SDS011;29836;52.286;9.576;2023-06-22T06:49:03;16.63;;;13.43;;
44169;SDS011;29836;52.286;9.576;2023-06-22T06:51:29;16.33;;;12.85;;
44169;SDS011;29836;52.286;9.576;2023-06-22T06:53:54;17.33;;;12.32;;
44169;SDS011;29836;52.286;9.576;2023-06-22T06:56:20;17.25;;;12.18;;
44169;SDS011;29836;52.286;9.576;2023-06-22T06:58:46;16.08;;;12.05;;
44169;SDS011;29836;52.286;9.576;2023-06-22T07:01:14;15.15;;;11.32;;
44169;SDS011;29836;52.286;9.576;2023-06-22T07:03:40;15.65;;;10.30;;
44169;SDS011;29836;52.286;9.576;2023-06-22T07:06:05;18.65;;;11.45;;
44169;SDS011;29836;52.286;9.576;2023-06-22T07:08:31;14.50;;;11.65;;
44169;SDS011;29836;52.286;9.576;2023-06-22T07:10:56;14.85;;;12.00;;
44169;SDS011;29836;52.286;9.576;2023-06-22T07:13:22;15.98;;;12.00;;
44169;SDS011;29836;52.286;9.576;2023-06-22T07:15:47;14.90;;;11.50;;
44169;SDS011;29836;52.286;9.576;2023-06-22T07:18:13;13.95;;;11.27;;
44169;SDS011;29836;52.286;9.576;2023-06-22T07:20:38;15.45;;;11.70;;
44169;SDS011;29836;52.286;9.576;2023-06-22T07:23:05;16.50;;;10.25;;
44169;SDS011;29836;52.286;9.576;2023-06-22T07:25:31;14.20;;;10.73;;
44169;SDS011;29836;52.286;9.576;2023-06-22T07:28:00;13.60;;;10.40;;
44169;SDS011;29836;52.286;9.576;2023-06-22T07:30:28;16.02;;;10.25;;
44169;SDS011;29836;52.286;9.576;2023-06-22T07:32:54;15.02;;;10.52;;
44169;SDS011;29836;52.286;9.576;2023-06-22T07:35:20;13.13;;;10.27;;
44169;SDS011;29836;52.286;9.576;2023-06-22T07:37:45;14.10;;;11.32;;
44169;SDS011;29836;52.286;9.576;2023-06-22T07:40:11;14.63;;;11.15;;
44169;SDS011;29836;52.286;9.576;2023-06-22T07:42:37;15.25;;;11.40;;
44169;SDS011;29836;52.286;9.576;2023-06-22T07:45:03;14.15;;;10.88;;
44169;SDS011;29836;52.286;9.576;2023-06-22T07:47:29;13.95;;;11.13;;
44169;SDS011;29836;52.286;9.576;2023-06-22T07:49:55;14.98;;;11.02;;
44169;SDS011;29836;52.286;9.576;2023-06-22T07:52:24;15.27;;;11.13;;
44169;SDS011;29836;52.286;9.576;2023-06-22T07:54:50;17.65;;;11.35;;
44169;SDS011;29836;52.286;9.576;2023-06-22T07:57:16;14.25;;;10.45;;
44169;SDS011;29836;52.286;9.576;2023-06-22T07:59:41;16.45;;;11.00;;
44169;SDS011;29836;52.286;9.576;2023-06-22T08:02:07;15.40;;;11.00;;
44169;SDS011;29836;52.286;9.576;2023-06-22T08:04:34;15.10;;;10.40;;
44169;SDS011;29836;52.286;9.576;2023-06-22T08:07:00;14.85;;;10.40;;
44169;SDS011;29836;52.286;9.576;2023-06-22T08:09:27;12.30;;;10.20;;
44169;SDS011;29836;52.286;9.576;2023-06-22T08:11:54;14.52;;;11.32;;
44169;SDS011;29836;52.286;9.576;2023-06-22T08:14:21;13.27;;;10.32;;
44169;SDS011;29836;52.286;9.576;2023-06-22T08:16:47;14.07;;;10.13;;
44169;SDS011;29836;52.286;9.576;2023-06-22T08:19:13;13.73;;;10.80;;
44169;SDS011;29836;52.286;9.576;2023-06-22T08:21:38;12.05;;;9.70;;
44169;SDS011;29836;52.286;9.576;2023-06-22T08:24:04;13.73;;;9.27;;
44169;SDS011;29836;52.286;9.576;2023-06-22T08:26:30;12.25;;;9.73;;
44169;SDS011;29836;52.286;9.576;2023-06-22T08:28:55;14.18;;;9.82;;
44169;SDS011;29836;52.286;9.576;2023-06-22T08:31:21;14.65;;;10.13;;
44169;SDS011;29836;52.286;9.576;2023-06-22T08:33:46;12.25;;;9.50;;
44169;SDS011;29836;52.286;9.576;2023-06-22T08:36:12;12.48;;;9.48;;
44169;SDS011;29836;52.286;9.576;2023-06-22T08:38:38;13.40;;;9.48;;
44169;SDS011;29836;52.286;9.576;2023-06-22T08:41:04;10.88;;;9.52;;
44169;SDS011;29836;52.286;9.576;2023-06-22T08:43:29;14.82;;;9.98;;
44169;SDS011;29836;52.286;9.576;2023-06-22T08:45:55;14.75;;;10.07;;
44169;SDS011;29836;52.286;9.576;2023-06-22T08:48:21;16.15;;;10.05;;
44169;SDS011;29836;52.286;9.576;2023-06-22T08:50:46;15.88;;;10.10;;
44169;SDS011;29836;52.286;9.576;2023-06-22T08:53:12;12.00;;;9.75;;
44169;SDS011;29836;52.286;9.576;2023-06-22T08:55:37;12.75;;;9.65;;
44169;SDS011;29836;52.286;9.576;2023-06-22T08:58:03;13.23;;;9.35;;
44169;SDS011;29836;52.286;9.576;2023-06-22T09:00:28;13.23;;;9.30;;
44169;SDS011;29836;52.286;9.576;2023-06-22T09:02:57;12.50;;;9.10;;
44169;SDS011;29836;52.286;9.576;2023-06-22T09:05:23;10.93;;;8.82;;
44169;SDS011;29836;52.286;9.576;2023-06-22T09:07:50;16.00;;;9.27;;
44169;SDS011;29836;52.286;9.576;2023-06-22T09:10:16;13.90;;;9.70;;
44169;SDS011;29836;52.286;9.576;2023-06-22T09:12:42;10.20;;;8.30;;
44169;SDS011;29836;52.286;9.576;2023-06-22T09:15:08;12.02;;;8.68;;
44169;SDS011;29836;52.286;9.576;2023-06-22T09:17:34;12.45;;;8.35;;
44169;SDS011;29836;52.286;9.576;2023-06-22T09:20:00;12.32;;;8.48;;
44169;SDS011;29836;52.286;9.576;2023-06-22T09:22:27;11.23;;;9.02;;
44169;SDS011;29836;52.286;9.576;2023-06-22T09:24:54;10.88;;;8.95;;
44169;SDS011;29836;52.286;9.576;2023-06-22T09:27:21;13.45;;;9.25;;
44169;SDS011;29836;52.286;9.576;2023-06-22T09:29:47;11.32;;;9.02;;
44169;SDS011;29836;52.286;9.576;2023-06-22T09:32:12;11.77;;;8.77;;
44169;SDS011;29836;52.286;9.576;2023-06-22T09:34:38;12.98;;;8.80;;
44169;SDS011;29836;52.286;9.576;2023-06-22T09:37:04;12.93;;;9.43;;
44169;SDS011;29836;52.286;9.576;2023-06-22T09:39:30;12.57;;;9.38;;
44169;SDS011;29836;52.286;9.576;2023-06-22T09:41:55;11.93;;;9.30;;
44169;SDS011;29836;52.286;9.576;2023-06-22T09:44:22;11.85;;;8.95;;
44169;SDS011;29836;52.286;9.576;2023-06-22T09:46:48;10.60;;;8.10;;
44169;SDS011;29836;52.286;9.576;2023-06-22T09:49:13;11.75;;;9.25;;
44169;SDS011;29836;52.286;9.576;2023-06-22T09:51:39;12.98;;;8.55;;
44169;SDS011;29836;52.286;9.576;2023-06-22T09:54:04;12.80;;;9.48;;
44169;SDS011;29836;52.286;9.576;2023-06-22T09:56:30;12.40;;;8.98;;
44169;SDS011;29836;52.286;9.576;2023-06-22T09:58:56;11.75;;;9.48;;
44169;SDS011;29836;52.286;9.576;2023-06-22T10:01:22;13.02;;;8.90;;
44169;SDS011;29836;52.286;9.576;2023-06-22T10:03:47;12.40;;;9.88;;
44169;SDS011;29836;52.286;9.576;2023-06-22T10:06:13;13.82;;;9.63;;
44169;SDS011;29836;52.286;9.576;2023-06-22T10:08:38;13.20;;;9.18;;
44169;SDS011;29836;52.286;9.576;2023-06-22T10:11:05;14.25;;;9.77;;
44169;SDS011;29836;52.286;9.576;2023-06-22T10:13:31;13.02;;;9.75;;
44169;SDS011;29836;52.286;9.576;2023-06-22T10:15:56;15.32;;;10.18;;
44169;SDS011;29836;52.286;9.576;2023-06-22T10:18:22;13.05;;;10.23;;
44169;SDS011;29836;52.286;9.576;2023-06-22T10:20:48;13.43;;;10.48;;
44169;SDS011;29836;52.286;9.576;2023-06-22T10:23:18;14.98;;;10.27;;
44169;SDS011;29836;52.286;9.576;2023-06-22T10:25:44;15.02;;;10.88;;
44169;SDS011;29836;52.286;9.576;2023-06-22T10:28:10;16.80;;;10.25;;
44169;SDS011;29836;52.286;9.576;2023-06-22T10:30:37;14.13;;;9.93;;
44169;SDS011;29836;52.286;9.576;2023-06-22T10:33:06;14.25;;;9.93;;
44169;SDS011;29836;52.286;9.576;2023-06-22T10:35:32;13.65;;;10.52;;
44169;SDS011;29836;52.286;9.576;2023-06-22T10:37:57;14.30;;;10.93;;
44169;SDS011;29836;52.286;9.576;2023-06-22T10:40:24;15.02;;;10.57;;
44169;SDS011;29836;52.286;9.576;2023-06-22T10:42:49;13.90;;;10.18;;
44169;SDS011;29836;52.286;9.576;2023-06-22T10:45:15;12.38;;;10.30;;
44169;SDS011;29836;52.286;9.576;2023-06-22T10:47:41;13.95;;;11.07;;
44169;SDS011;29836;52.286;9.576;2023-06-22T10:50:10;14.13;;;10.20;;
44169;SDS011;29836;52.286;9.576;2023-06-22T10:52:35;14.32;;;10.65;;
44169;SDS011;29836;52.286;9.576;2023-06-22T10:55:01;16.20;;;11.05;;
44169;SDS011;29836;52.286;9.576;2023-06-22T10:57:27;15.02;;;11.27;;
44169;SDS011;29836;52.286;9.576;2023-06-22T10:59:52;12.90;;;9.75;;
44169;SDS011;29836;52.286;9.576;2023-06-22T11:02:18;12.70;;;10.23;;
44169;SDS011;29836;52.286;9.576;2023-06-22T11:04:43;13.65;;;10.45;;
44169;SDS011;29836;52.286;9.576;2023-06-22T11:07:09;13.27;;;10.32;;
44169;SDS011;29836;52.286;9.576;2023-06-22T11:09:34;13.18;;;10.80;;
44169;SDS011;29836;52.286;9.576;2023-06-22T11:12:00;16.73;;;11.73;;
44169;SDS011;29836;52.286;9.576;2023-06-22T11:14:25;13.18;;;10.80;;
44169;SDS011;29836;52.286;9.576;2023-06-22T11:16:51;14.52;;;10.88;;
44169;SDS011;29836;52.286;9.576;2023-06-22T11:19:17;13.52;;;10.90;;
44169;SDS011;29836;52.286;9.576;2023-06-22T11:21:43;14.25;;;11.23;;
44169;SDS011;29836;52.286;9.576;2023-06-22T11:24:08;16.48;;;11.68;;
44169;SDS011;29836;52.286;9.576;2023-06-22T11:26:34;14.40;;;11.98;;
44169;SDS011;29836;52.286;9.576;2023-06-22T11:29:00;15.75;;;11.52;;
44169;SDS011;29836;52.286;9.576;2023-06-22T11:31:25;11.55;;;9.30;;
44169;SDS011;29836;52.286;9.576;2023-06-22T11:33:51;16.95;;;11.02;;
44169;SDS011;29836;52.286;9.576;2023-06-22T11:36:17;13.60;;;9.55;;
44169;SDS011;29836;52.286;9.576;2023-06-22T11:38:44;14.23;;;10.93;;
44169;SDS011;29836;52.286;9.576;2023-06-22T11:41:09;12.73;;;10.15;;
44169;SDS011;29836;52.286;9.576;2023-06-22T11:43:35;13.52;;;10.38;;
44169;SDS011;29836;52.286;9.576;2023-06-22T11:46:02;12.73;;;10.10;;
44169;SDS011;29836;52.286;9.576;2023-06-22T11:48:28;14.98;;;10.68;;
44169;SDS011;29836;52.286;9.576;2023-06-22T11:50:54;12.65;;;10.68;;
44169;SDS011;29836;52.286;9.576;2023-06-22T11:53:20;10.77;;;9.60;;
44169;SDS011;29836;52.286;9.576;2023-06-22T11:55:47;14.80;;;11.27;;
44169;SDS011;29836;52.286;9.576;2023-06-22T11:58:13;12.45;;;9.93;;
44169;SDS011;29836;52.286;9.576;2023-06-22T12:00:39;11.27;;;10.05;;
44169;SDS011;29836;52.286;9.576;2023-06-22T12:03:05;12.02;;;10.07;;
44169;SDS011;29836;52.286;9.576;2023-06-22T12:05:30;13.05;;;9.63;;
44169;SDS011;29836;52.286;9.576;2023-06-22T12:07:56;13.80;;;9.75;;
44169;SDS011;29836;52.286;9.576;2023-06-22T12:10:22;10.98;;;9.30;;
44169;SDS011;29836;52.286;9.576;2023-06-22T12:12:48;12.63;;;9.80;;
44169;SDS011;29836;52.286;9.576;2023-06-22T12:15:14;11.63;;;10.43;;
44169;SDS011;29836;52.286;9.576;2023-06-22T12:17:39;10.13;;;9.07;;
44169;SDS011;29836;52.286;9.576;2023-06-22T12:20:06;12.45;;;9.13;;
44169;SDS011;29836;52.286;9.576;2023-06-22T12:22:32;11.43;;;9.60;;
44169;SDS011;29836;52.286;9.576;2023-06-22T12:24:58;13.35;;;9.80;;
44169;SDS011;29836;52.286;9.576;2023-06-22T12:27:24;9.43;;;8.43;;
44169;SDS011;29836;52.286;9.576;2023-06-22T12:29:50;10.63;;;8.98;;
44169;SDS011;29836;52.286;9.576;2023-06-22T12:32:16;12.13;;;9.38;;
44169;SDS011;29836;52.286;9.576;2023-06-22T12:34:42;11.52;;;8.55;;
44169;SDS011;29836;52.286;9.576;2023-06-22T12:37:08;12.55;;;7.68;;
44169;SDS011;29836;52.286;9.576;2023-06-22T12:39:33;11.48;;;8.75;;
44169;SDS011;29836;52.286;9.576;2023-06-22T12:41:59;9.10;;;8.07;;
44169;SDS011;29836;52.286;9.576;2023-06-22T12:44:25;10.43;;;8.30;;
44169;SDS011;29836;52.286;9.576;2023-06-22T12:46:51;11.27;;;8.63;;
44169;SDS011;29836;52.286;9.576;2023-06-22T12:49:16;10.70;;;8.80;;
44169;SDS011;29836;52.286;9.576;2023-06-22T12:51:42;14.77;;;9.60;;
44169;SDS011;29836;52.286;9.576;2023-06-22T12:54:08;13.60;;;9.48;;
44169;SDS011;29836;52.286;9.576;2023-06-22T12:56:34;11.52;;;9.02;;
44169;SDS011;29836;52.286;9.576;2023-06-22T12:59:00;12.38;;;8.80;;
44169;SDS011;29836;52.286;9.576;2023-06-22T13:01:28;11.60;;;8.70;;
44169;SDS011;29836;52.286;9.576;2023-06-22T13:03:55;9.90;;;7.90;;
44169;SDS011;29836;52.286;9.576;2023-06-22T13:06:20;10.30;;;8.60;;
44169;SDS011;29836;52.286;9.576;2023-06-22T13:08:46;10.40;;;9.38;;
44169;SDS011;29836;52.286;9.576;2023-06-22T13:11:12;14.43;;;11.77;;
44169;SDS011;29836;52.286;9.576;2023-06-22T13:13:38;13.98;;;11.70;;
44169;SDS011;29836;52.286;9.576;2023-06-22T13:16:04;14.38;;;12.10;;
44169;SDS011;29836;52.286;9.576;2023-06-22T13:18:29;16.02;;;13.43;;
44169;SDS011;29836;52.286;9.576;2023-06-22T13:20:55;17.02;;;12.20;;
44169;SDS011;29836;52.286;9.576;2023-06-22T13:23:21;12.40;;;10.82;;
44169;SDS011;29836;52.286;9.576;2023-06-22T13:25:46;13.88;;;11.52;;
44169;SDS011;29836;52.286;9.576;2023-06-22T13:28:12;13.55;;;10.88;;
44169;SDS011;29836;52.286;9.576;2023-06-22T13:30:39;13.02;;;11.63;;
44169;SDS011;29836;52.286;9.576;2023-06-22T13:33:05;12.80;;;11.50;;
44169;SDS011;29836;52.286;9.576;2023-06-22T13:35:31;13.70;;;11.88;;
44169;SDS011;29836;52.286;9.576;2023-06-22T13:37:56;12.70;;;10.82;;
44169;SDS011;29836;52.286;9.576;2023-06-22T13:40:22;14.90;;;12.55;;
44169;SDS011;29836;52.286;9.576;2023-06-22T13:42:47;13.13;;;10.77;;
44169;SDS011;29836;52.286;9.576;2023-06-22T13:45:13;12.45;;;11.15;;
44169;SDS011;29836;52.286;9.576;2023-06-22T13:47:38;13.82;;;12.32;;
44169;SDS011;29836;52.286;9.576;2023-06-22T13:50:04;12.10;;;10.68;;
44169;SDS011;29836;52.286;9.576;2023-06-22T13:52:30;12.90;;;11.20;;
44169;SDS011;29836;52.286;9.576;2023-06-22T13:54:56;14.60;;;12.75;;
44169;SDS011;29836;52.286;9.576;2023-06-22T13:57:21;15.15;;;13.57;;
44169;SDS011;29836;52.286;9.576;2023-06-22T13:59:47;15.90;;;13.60;;
44169;SDS011;29836;52.286;9.576;2023-06-22T14:02:12;17.92;;;14.13;;
44169;SDS011;29836;52.286;9.576;2023-06-22T14:04:38;20.45;;;14.70;;
44169;SDS011;29836;52.286;9.576;2023-06-22T14:07:04;22.13;;;14.57;;
44169;SDS011;29836;52.286;9.576;2023-06-22T14:09:29;18.45;;;14.90;;
44169;SDS011;29836;52.286;9.576;2023-06-22T14:11:55;18.33;;;15.18;;
44169;SDS011;29836;52.286;9.576;2023-06-22T14:14:21;18.50;;;16.40;;
44169;SDS011;29836;52.286;9.576;2023-06-22T14:16:46;19.35;;;15.70;;
44169;SDS011;29836;52.286;9.576;2023-06-22T14:19:14;17.05;;;15.25;;
44169;SDS011;29836;52.286;9.576;2023-06-22T14:21:42;16.90;;;14.95;;
44169;SDS011;29836;52.286;9.576;2023-06-22T14:24:07;18.10;;;16.10;;
44169;SDS011;29836;52.286;9.576;2023-06-22T14:26:33;18.95;;;16.70;;